sensor_id;sensor_type;location;lat;lon;timestamp;P1;durP1;ratioP1;P2;durP2;ratioP2
21677;SDS011;11000;50.360;7.582;2024-03-25T00:00:33;10.43;;;2.10;;
21677;SDS011;11000;50.360;7.582;2024-03-25T00:02:54;6.07;;;1.97;;
21677;SDS011;11000;50.360;7.582;2024-03-25T00:05:14;9.17;;;2.60;;
21677;SDS011;11000;50.360;7.582;2024-03-25T00:07:37;7.80;;;2.20;;
21677;SDS011;11000;50.360;7.582;2024-03-25T00:09:58;6.87;;;2.17;;
21677;SDS011;11000;50.360;7.582;2024-03-25T00:12:19;8.73;;;2.40;;
21677;SDS011;11000;50.360;7.582;2024-03-25T00:14:39;7.47;;;2.07;;
21677;SDS011;11000;50.360;7.582;2024-03-25T00:17:00;11.67;;;2.53;;
21677;SDS011;11000;50.360;7.582;2024-03-25T00:19:20;6.60;;;2.13;;
21677;SDS011;11000;50.360;7.582;2024-03-25T00:21:41;8.87;;;2.63;;
21677;SDS011;11000;50.360;7.582;2024-03-25T00:24:02;6.37;;;2.37;;
21677;SDS011;11000;50.360;7.582;2024-03-25T00:26:23;8.87;;;2.50;;
21677;SDS011;11000;50.360;7.582;2024-03-25T00:28:43;8.73;;;2.20;;
21677;SDS011;11000;50.360;7.582;2024-03-25T00:31:04;11.43;;;2.00;;
21677;SDS011;11000;50.360;7.582;2024-03-25T00:33:24;5.10;;;2.53;;
21677;SDS011;11000;50.360;7.582;2024-03-25T00:35:45;10.03;;;2.30;;
21677;SDS011;11000;50.360;7.582;2024-03-25T00:38:05;8.83;;;2.70;;
21677;SDS011;11000;50.360;7.582;2024-03-25T00:40:27;11.57;;;1.90;;
21677;SDS011;11000;50.360;7.582;2024-03-25T00:42:47;9.23;;;2.50;;
21677;SDS011;11000;50.360;7.582;2024-03-25T00:45:08;8.17;;;2.60;;
21677;SDS011;11000;50.360;7.582;2024-03-25T00:47:29;7.67;;;2.07;;
21677;SDS011;11000;50.360;7.582;2024-03-25T00:49:49;8.10;;;2.13;;
21677;SDS011;11000;50.360;7.582;2024-03-25T00:52:10;4.93;;;1.90;;
21677;SDS011;11000;50.360;7.582;2024-03-25T00:54:30;8.67;;;2.30;;
21677;SDS011;11000;50.360;7.582;2024-03-25T00:56:50;6.40;;;1.93;;
21677;SDS011;11000;50.360;7.582;2024-03-25T00:59:11;10.80;;;3.07;;
21677;SDS011;11000;50.360;7.582;2024-03-25T01:01:32;6.93;;;2.30;;
21677;SDS011;11000;50.360;7.582;2024-03-25T01:03:55;9.33;;;2.50;;
21677;SDS011;11000;50.360;7.582;2024-03-25T01:06:16;12.07;;;2.10;;
21677;SDS011;11000;50.360;7.582;2024-03-25T01:08:36;9.57;;;1.93;;
21677;SDS011;11000;50.360;7.582;2024-03-25T01:10:57;13.50;;;2.20;;
21677;SDS011;11000;50.360;7.582;2024-03-25T01:13:17;8.63;;;2.23;;
21677;SDS011;11000;50.360;7.582;2024-03-25T01:15:38;7.53;;;1.70;;
21677;SDS011;11000;50.360;7.582;2024-03-25T01:17:58;6.87;;;2.20;;
21677;SDS011;11000;50.360;7.582;2024-03-25T01:20:19;4.53;;;1.83;;
21677;SDS011;11000;50.360;7.582;2024-03-25T01:22:39;11.30;;;2.60;;
21677;SDS011;11000;50.360;7.582;2024-03-25T01:25:00;5.53;;;1.87;;
21677;SDS011;11000;50.360;7.582;2024-03-25T01:27:20;6.73;;;2.20;;
21677;SDS011;11000;50.360;7.582;2024-03-25T01:29:41;5.53;;;1.97;;
21677;SDS011;11000;50.360;7.582;2024-03-25T01:32:02;8.83;;;1.90;;
21677;SDS011;11000;50.360;7.582;2024-03-25T01:34:24;5.80;;;1.77;;
21677;SDS011;11000;50.360;7.582;2024-03-25T01:36:45;4.77;;;2.00;;
21677;SDS011;11000;50.360;7.582;2024-03-25T01:39:06;10.20;;;2.73;;
21677;SDS011;11000;50.360;7.582;2024-03-25T01:41:26;5.60;;;2.23;;
21677;SDS011;11000;50.360;7.582;2024-03-25T01:43:48;6.40;;;1.80;;
21677;SDS011;11000;50.360;7.582;2024-03-25T01:46:08;7.27;;;2.00;;
21677;SDS011;11000;50.360;7.582;2024-03-25T01:48:29;10.20;;;2.40;;
21677;SDS011;11000;50.360;7.582;2024-03-25T01:50:50;6.47;;;2.30;;
21677;SDS011;11000;50.360;7.582;2024-03-25T01:53:11;8.67;;;2.07;;
21677;SDS011;11000;50.360;7.582;2024-03-25T01:55:34;5.77;;;2.10;;
21677;SDS011;11000;50.360;7.582;2024-03-25T01:57:55;7.30;;;2.23;;
21677;SDS011;11000;50.360;7.582;2024-03-25T02:00:16;5.83;;;2.10;;
21677;SDS011;11000;50.360;7.582;2024-03-25T02:02:38;6.97;;;1.60;;
21677;SDS011;11000;50.360;7.582;2024-03-25T02:05:10;4.30;;;1.97;;
21677;SDS011;11000;50.360;7.582;2024-03-25T02:07:31;6.80;;;2.33;;
21677;SDS011;11000;50.360;7.582;2024-03-25T02:09:53;4.90;;;1.97;;
21677;SDS011;11000;50.360;7.582;2024-03-25T02:12:15;10.83;;;1.97;;
21677;SDS011;11000;50.360;7.582;2024-03-25T02:14:36;8.03;;;2.07;;
21677;SDS011;11000;50.360;7.582;2024-03-25T02:16:56;6.87;;;2.30;;
21677;SDS011;11000;50.360;7.582;2024-03-25T02:19:17;8.03;;;2.07;;
21677;SDS011;11000;50.360;7.582;2024-03-25T02:21:38;8.30;;;2.73;;
21677;SDS011;11000;50.360;7.582;2024-03-25T02:23:59;9.40;;;2.73;;
21677;SDS011;11000;50.360;7.582;2024-03-25T02:26:19;9.57;;;2.00;;
21677;SDS011;11000;50.360;7.582;2024-03-25T02:28:40;5.27;;;1.87;;
21677;SDS011;11000;50.360;7.582;2024-03-25T02:31:01;9.93;;;2.53;;
21677;SDS011;11000;50.360;7.582;2024-03-25T02:33:21;7.67;;;2.30;;
21677;SDS011;11000;50.360;7.582;2024-03-25T02:35:42;8.07;;;2.47;;
21677;SDS011;11000;50.360;7.582;2024-03-25T02:38:04;6.57;;;2.20;;
21677;SDS011;11000;50.360;7.582;2024-03-25T02:40:26;5.57;;;2.10;;
21677;SDS011;11000;50.360;7.582;2024-03-25T02:42:46;11.20;;;2.70;;
21677;SDS011;11000;50.360;7.582;2024-03-25T02:45:07;6.80;;;2.37;;
21677;SDS011;11000;50.360;7.582;2024-03-25T02:47:28;5.47;;;1.93;;
21677;SDS011;11000;50.360;7.582;2024-03-25T02:49:49;7.37;;;2.33;;
21677;SDS011;11000;50.360;7.582;2024-03-25T02:52:11;10.60;;;2.50;;
21677;SDS011;11000;50.360;7.582;2024-03-25T02:54:31;7.70;;;2.50;;
21677;SDS011;11000;50.360;7.582;2024-03-25T02:56:52;7.20;;;2.33;;
21677;SDS011;11000;50.360;7.582;2024-03-25T02:59:13;7.83;;;3.03;;
21677;SDS011;11000;50.360;7.582;2024-03-25T03:01:33;4.60;;;2.00;;
21677;SDS011;11000;50.360;7.582;2024-03-25T03:03:53;7.90;;;2.53;;
21677;SDS011;11000;50.360;7.582;2024-03-25T03:06:14;5.53;;;2.30;;
21677;SDS011;11000;50.360;7.582;2024-03-25T03:08:34;9.67;;;2.40;;
21677;SDS011;11000;50.360;7.582;2024-03-25T03:10:55;5.80;;;2.23;;
21677;SDS011;11000;50.360;7.582;2024-03-25T03:13:16;8.87;;;2.30;;
21677;SDS011;11000;50.360;7.582;2024-03-25T03:15:36;7.50;;;2.20;;
21677;SDS011;11000;50.360;7.582;2024-03-25T03:17:57;4.90;;;2.10;;
21677;SDS011;11000;50.360;7.582;2024-03-25T03:20:18;12.63;;;2.70;;
21677;SDS011;11000;50.360;7.582;2024-03-25T03:22:38;6.77;;;2.60;;
21677;SDS011;11000;50.360;7.582;2024-03-25T03:24:59;4.43;;;2.30;;
21677;SDS011;11000;50.360;7.582;2024-03-25T03:27:19;7.73;;;2.37;;
21677;SDS011;11000;50.360;7.582;2024-03-25T03:29:39;7.30;;;2.63;;
21677;SDS011;11000;50.360;7.582;2024-03-25T03:32:00;5.03;;;2.60;;
21677;SDS011;11000;50.360;7.582;2024-03-25T03:34:20;10.83;;;2.47;;
21677;SDS011;11000;50.360;7.582;2024-03-25T03:36:41;11.80;;;2.73;;
21677;SDS011;11000;50.360;7.582;2024-03-25T03:39:01;8.40;;;3.67;;
21677;SDS011;11000;50.360;7.582;2024-03-25T03:41:23;6.93;;;2.50;;
21677;SDS011;11000;50.360;7.582;2024-03-25T03:43:43;7.70;;;2.70;;
21677;SDS011;11000;50.360;7.582;2024-03-25T03:46:04;7.33;;;3.20;;
21677;SDS011;11000;50.360;7.582;2024-03-25T03:48:25;6.90;;;2.47;;
21677;SDS011;11000;50.360;7.582;2024-03-25T03:50:45;6.17;;;2.80;;
21677;SDS011;11000;50.360;7.582;2024-03-25T03:53:06;8.37;;;2.70;;
21677;SDS011;11000;50.360;7.582;2024-03-25T03:55:26;6.80;;;2.80;;
21677;SDS011;11000;50.360;7.582;2024-03-25T03:57:47;5.53;;;2.20;;
21677;SDS011;11000;50.360;7.582;2024-03-25T04:00:08;6.53;;;2.60;;
21677;SDS011;11000;50.360;7.582;2024-03-25T04:02:31;9.17;;;3.20;;
21677;SDS011;11000;50.360;7.582;2024-03-25T04:04:52;9.97;;;2.63;;
21677;SDS011;11000;50.360;7.582;2024-03-25T04:07:12;5.70;;;2.60;;
21677;SDS011;11000;50.360;7.582;2024-03-25T04:09:33;7.07;;;3.23;;
21677;SDS011;11000;50.360;7.582;2024-03-25T04:11:53;4.23;;;2.30;;
21677;SDS011;11000;50.360;7.582;2024-03-25T04:14:14;7.63;;;3.13;;
21677;SDS011;11000;50.360;7.582;2024-03-25T04:16:34;8.83;;;2.87;;
21677;SDS011;11000;50.360;7.582;2024-03-25T04:18:55;5.53;;;2.97;;
21677;SDS011;11000;50.360;7.582;2024-03-25T04:21:16;11.57;;;2.80;;
21677;SDS011;11000;50.360;7.582;2024-03-25T04:23:37;5.33;;;2.63;;
21677;SDS011;11000;50.360;7.582;2024-03-25T04:26:00;12.83;;;3.20;;
21677;SDS011;11000;50.360;7.582;2024-03-25T04:28:22;5.13;;;2.80;;
21677;SDS011;11000;50.360;7.582;2024-03-25T04:30:42;9.20;;;3.13;;
21677;SDS011;11000;50.360;7.582;2024-03-25T04:33:03;4.93;;;2.80;;
21677;SDS011;11000;50.360;7.582;2024-03-25T04:35:24;5.63;;;2.90;;
21677;SDS011;11000;50.360;7.582;2024-03-25T04:37:44;8.43;;;3.00;;
21677;SDS011;11000;50.360;7.582;2024-03-25T04:40:05;9.47;;;3.47;;
21677;SDS011;11000;50.360;7.582;2024-03-25T04:42:26;9.40;;;3.30;;
21677;SDS011;11000;50.360;7.582;2024-03-25T04:44:47;5.43;;;3.20;;
21677;SDS011;11000;50.360;7.582;2024-03-25T04:47:07;4.47;;;2.63;;
21677;SDS011;11000;50.360;7.582;2024-03-25T04:49:28;6.53;;;3.30;;
21677;SDS011;11000;50.360;7.582;2024-03-25T04:51:48;8.10;;;2.63;;
21677;SDS011;11000;50.360;7.582;2024-03-25T04:54:11;5.73;;;2.57;;
21677;SDS011;11000;50.360;7.582;2024-03-25T04:56:32;11.73;;;2.87;;
21677;SDS011;11000;50.360;7.582;2024-03-25T04:58:53;7.67;;;3.07;;
21677;SDS011;11000;50.360;7.582;2024-03-25T05:01:13;7.23;;;2.60;;
21677;SDS011;11000;50.360;7.582;2024-03-25T05:03:34;5.87;;;2.73;;
21677;SDS011;11000;50.360;7.582;2024-03-25T05:05:54;6.63;;;2.87;;
21677;SDS011;11000;50.360;7.582;2024-03-25T05:08:15;6.43;;;2.67;;
21677;SDS011;11000;50.360;7.582;2024-03-25T05:10:35;6.73;;;2.90;;
21677;SDS011;11000;50.360;7.582;2024-03-25T05:12:56;7.60;;;2.93;;
21677;SDS011;11000;50.360;7.582;2024-03-25T05:15:17;7.27;;;2.63;;
21677;SDS011;11000;50.360;7.582;2024-03-25T05:17:37;8.37;;;3.03;;
21677;SDS011;11000;50.360;7.582;2024-03-25T05:19:58;9.10;;;2.90;;
21677;SDS011;11000;50.360;7.582;2024-03-25T05:22:18;5.40;;;2.90;;
21677;SDS011;11000;50.360;7.582;2024-03-25T05:24:39;6.40;;;2.60;;
21677;SDS011;11000;50.360;7.582;2024-03-25T05:26:59;7.97;;;3.23;;
21677;SDS011;11000;50.360;7.582;2024-03-25T05:29:20;5.50;;;2.50;;
21677;SDS011;11000;50.360;7.582;2024-03-25T05:31:55;5.00;;;2.43;;
21677;SDS011;11000;50.360;7.582;2024-03-25T05:34:19;10.33;;;3.00;;
21677;SDS011;11000;50.360;7.582;2024-03-25T05:36:40;7.10;;;2.90;;
21677;SDS011;11000;50.360;7.582;2024-03-25T05:39:00;8.03;;;3.10;;
21677;SDS011;11000;50.360;7.582;2024-03-25T05:41:21;4.60;;;2.60;;
21677;SDS011;11000;50.360;7.582;2024-03-25T05:43:41;9.73;;;3.00;;
21677;SDS011;11000;50.360;7.582;2024-03-25T05:46:02;8.63;;;3.03;;
21677;SDS011;11000;50.360;7.582;2024-03-25T05:48:26;8.03;;;2.90;;
21677;SDS011;11000;50.360;7.582;2024-03-25T05:50:56;8.60;;;2.83;;
21677;SDS011;11000;50.360;7.582;2024-03-25T05:53:27;8.13;;;2.83;;
21677;SDS011;11000;50.360;7.582;2024-03-25T05:55:48;7.13;;;2.80;;
21677;SDS011;11000;50.360;7.582;2024-03-25T05:58:09;4.97;;;2.83;;
21677;SDS011;11000;50.360;7.582;2024-03-25T06:00:30;3.43;;;2.37;;
21677;SDS011;11000;50.360;7.582;2024-03-25T06:02:53;5.47;;;2.53;;
21677;SDS011;11000;50.360;7.582;2024-03-25T06:05:13;9.13;;;3.40;;
21677;SDS011;11000;50.360;7.582;2024-03-25T06:07:34;14.13;;;8.50;;
21677;SDS011;11000;50.360;7.582;2024-03-25T06:09:54;5.80;;;3.10;;
21677;SDS011;11000;50.360;7.582;2024-03-25T06:12:15;6.07;;;2.57;;
21677;SDS011;11000;50.360;7.582;2024-03-25T06:14:35;8.77;;;3.10;;
21677;SDS011;11000;50.360;7.582;2024-03-25T06:16:58;6.77;;;2.77;;
21677;SDS011;11000;50.360;7.582;2024-03-25T06:19:18;6.27;;;3.00;;
21677;SDS011;11000;50.360;7.582;2024-03-25T06:21:38;7.10;;;2.87;;
21677;SDS011;11000;50.360;7.582;2024-03-25T06:23:59;9.53;;;2.67;;
21677;SDS011;11000;50.360;7.582;2024-03-25T06:26:19;6.87;;;3.00;;
21677;SDS011;11000;50.360;7.582;2024-03-25T06:28:40;7.97;;;3.30;;
21677;SDS011;11000;50.360;7.582;2024-03-25T06:31:00;9.13;;;2.90;;
21677;SDS011;11000;50.360;7.582;2024-03-25T06:33:40;6.77;;;2.43;;
21677;SDS011;11000;50.360;7.582;2024-03-25T06:36:19;5.73;;;2.73;;
21677;SDS011;11000;50.360;7.582;2024-03-25T06:38:39;7.03;;;2.70;;
21677;SDS011;11000;50.360;7.582;2024-03-25T06:41:00;5.60;;;3.03;;
21677;SDS011;11000;50.360;7.582;2024-03-25T06:43:20;6.53;;;2.93;;
21677;SDS011;11000;50.360;7.582;2024-03-25T06:45:41;8.93;;;3.07;;
21677;SDS011;11000;50.360;7.582;2024-03-25T06:48:01;5.43;;;2.50;;
21677;SDS011;11000;50.360;7.582;2024-03-25T06:50:22;5.93;;;2.80;;
21677;SDS011;11000;50.360;7.582;2024-03-25T06:52:43;6.37;;;2.43;;
21677;SDS011;11000;50.360;7.582;2024-03-25T06:55:03;5.20;;;3.17;;
21677;SDS011;11000;50.360;7.582;2024-03-25T06:57:24;6.17;;;2.53;;
21677;SDS011;11000;50.360;7.582;2024-03-25T06:59:45;4.87;;;2.47;;
21677;SDS011;11000;50.360;7.582;2024-03-25T07:02:05;6.53;;;2.57;;
21677;SDS011;11000;50.360;7.582;2024-03-25T07:04:27;6.90;;;3.10;;
21677;SDS011;11000;50.360;7.582;2024-03-25T07:06:47;3.60;;;2.40;;
21677;SDS011;11000;50.360;7.582;2024-03-25T07:09:08;6.07;;;2.20;;
21677;SDS011;11000;50.360;7.582;2024-03-25T07:11:31;6.53;;;2.30;;
21677;SDS011;11000;50.360;7.582;2024-03-25T07:13:51;4.60;;;2.40;;
21677;SDS011;11000;50.360;7.582;2024-03-25T07:16:12;4.97;;;2.33;;
21677;SDS011;11000;50.360;7.582;2024-03-25T07:18:32;6.63;;;2.63;;
21677;SDS011;11000;50.360;7.582;2024-03-25T07:20:53;6.30;;;2.13;;
21677;SDS011;11000;50.360;7.582;2024-03-25T07:23:14;5.00;;;2.20;;
21677;SDS011;11000;50.360;7.582;2024-03-25T07:25:34;5.43;;;2.37;;
21677;SDS011;11000;50.360;7.582;2024-03-25T07:27:55;5.93;;;2.40;;
21677;SDS011;11000;50.360;7.582;2024-03-25T07:30:16;2.13;;;2.00;;
21677;SDS011;11000;50.360;7.582;2024-03-25T07:32:37;5.47;;;2.03;;
21677;SDS011;11000;50.360;7.582;2024-03-25T07:34:57;5.27;;;2.30;;
21677;SDS011;11000;50.360;7.582;2024-03-25T07:37:17;8.40;;;2.30;;
21677;SDS011;11000;50.360;7.582;2024-03-25T07:39:38;7.10;;;2.67;;
21677;SDS011;11000;50.360;7.582;2024-03-25T07:41:58;6.20;;;2.33;;
21677;SDS011;11000;50.360;7.582;2024-03-25T07:44:19;8.17;;;2.67;;
21677;SDS011;11000;50.360;7.582;2024-03-25T07:46:39;4.40;;;2.20;;
21677;SDS011;11000;50.360;7.582;2024-03-25T07:49:00;4.63;;;2.37;;
21677;SDS011;11000;50.360;7.582;2024-03-25T07:51:20;6.00;;;2.07;;
21677;SDS011;11000;50.360;7.582;2024-03-25T07:53:41;7.93;;;2.60;;
21677;SDS011;11000;50.360;7.582;2024-03-25T07:56:01;5.30;;;2.30;;
21677;SDS011;11000;50.360;7.582;2024-03-25T07:58:24;6.63;;;2.73;;
21677;SDS011;11000;50.360;7.582;2024-03-25T08:00:45;6.33;;;2.30;;
21677;SDS011;11000;50.360;7.582;2024-03-25T08:03:06;5.30;;;2.47;;
21677;SDS011;11000;50.360;7.582;2024-03-25T08:05:26;5.77;;;2.47;;
21677;SDS011;11000;50.360;7.582;2024-03-25T08:07:49;5.80;;;2.40;;
21677;SDS011;11000;50.360;7.582;2024-03-25T08:10:09;6.57;;;2.40;;
21677;SDS011;11000;50.360;7.582;2024-03-25T08:12:30;7.37;;;2.20;;
21677;SDS011;11000;50.360;7.582;2024-03-25T08:14:50;6.33;;;2.27;;
21677;SDS011;11000;50.360;7.582;2024-03-25T08:17:11;3.43;;;1.90;;
21677;SDS011;11000;50.360;7.582;2024-03-25T08:19:31;6.90;;;2.20;;
21677;SDS011;11000;50.360;7.582;2024-03-25T08:21:52;5.63;;;2.30;;
21677;SDS011;11000;50.360;7.582;2024-03-25T08:24:13;6.93;;;2.57;;
21677;SDS011;11000;50.360;7.582;2024-03-25T08:26:35;7.40;;;2.60;;
21677;SDS011;11000;50.360;7.582;2024-03-25T08:28:56;7.93;;;2.70;;
21677;SDS011;11000;50.360;7.582;2024-03-25T08:31:16;8.10;;;2.80;;
21677;SDS011;11000;50.360;7.582;2024-03-25T08:33:37;7.77;;;2.07;;
21677;SDS011;11000;50.360;7.582;2024-03-25T08:35:57;6.53;;;2.40;;
21677;SDS011;11000;50.360;7.582;2024-03-25T08:38:18;9.93;;;2.37;;
21677;SDS011;11000;50.360;7.582;2024-03-25T08:40:38;8.73;;;2.30;;
21677;SDS011;11000;50.360;7.582;2024-03-25T08:43:00;8.83;;;2.37;;
21677;SDS011;11000;50.360;7.582;2024-03-25T08:45:20;9.07;;;2.00;;
21677;SDS011;11000;50.360;7.582;2024-03-25T08:47:41;5.73;;;2.10;;
21677;SDS011;11000;50.360;7.582;2024-03-25T08:50:02;11.63;;;2.30;;
21677;SDS011;11000;50.360;7.582;2024-03-25T08:52:23;13.93;;;2.50;;
21677;SDS011;11000;50.360;7.582;2024-03-25T08:54:43;9.67;;;2.53;;
21677;SDS011;11000;50.360;7.582;2024-03-25T08:57:04;4.53;;;1.90;;
21677;SDS011;11000;50.360;7.582;2024-03-25T08:59:24;10.80;;;2.67;;
21677;SDS011;11000;50.360;7.582;2024-03-25T09:01:45;7.87;;;2.60;;
21677;SDS011;11000;50.360;7.582;2024-03-25T09:04:06;15.07;;;2.80;;
21677;SDS011;11000;50.360;7.582;2024-03-25T09:06:27;7.87;;;1.83;;
21677;SDS011;11000;50.360;7.582;2024-03-25T09:08:47;7.63;;;1.67;;
21677;SDS011;11000;50.360;7.582;2024-03-25T09:11:27;7.57;;;1.80;;
21677;SDS011;11000;50.360;7.582;2024-03-25T09:13:47;10.53;;;1.77;;
21677;SDS011;11000;50.360;7.582;2024-03-25T09:16:08;8.50;;;2.37;;
21677;SDS011;11000;50.360;7.582;2024-03-25T09:18:28;8.87;;;2.63;;
21677;SDS011;11000;50.360;7.582;2024-03-25T09:20:48;8.20;;;2.80;;
21677;SDS011;11000;50.360;7.582;2024-03-25T09:23:09;11.10;;;2.53;;
21677;SDS011;11000;50.360;7.582;2024-03-25T09:25:29;10.50;;;2.60;;
21677;SDS011;11000;50.360;7.582;2024-03-25T09:27:50;14.67;;;3.17;;
21677;SDS011;11000;50.360;7.582;2024-03-25T09:30:11;10.10;;;2.53;;
21677;SDS011;11000;50.360;7.582;2024-03-25T09:32:32;6.87;;;2.23;;
21677;SDS011;11000;50.360;7.582;2024-03-25T09:34:53;9.97;;;2.50;;
21677;SDS011;11000;50.360;7.582;2024-03-25T09:37:13;9.57;;;2.37;;
21677;SDS011;11000;50.360;7.582;2024-03-25T09:39:33;10.17;;;2.83;;
21677;SDS011;11000;50.360;7.582;2024-03-25T09:41:54;10.47;;;2.83;;
21677;SDS011;11000;50.360;7.582;2024-03-25T09:44:15;8.90;;;2.30;;
21677;SDS011;11000;50.360;7.582;2024-03-25T09:46:39;8.60;;;2.87;;
21677;SDS011;11000;50.360;7.582;2024-03-25T09:49:01;8.30;;;2.53;;
21677;SDS011;11000;50.360;7.582;2024-03-25T09:51:25;4.00;;;1.80;;
21677;SDS011;11000;50.360;7.582;2024-03-25T09:53:45;8.60;;;2.77;;
21677;SDS011;11000;50.360;7.582;2024-03-25T09:56:06;15.57;;;2.83;;
21677;SDS011;11000;50.360;7.582;2024-03-25T09:58:27;9.70;;;2.40;;
21677;SDS011;11000;50.360;7.582;2024-03-25T10:00:50;9.73;;;2.13;;
21677;SDS011;11000;50.360;7.582;2024-03-25T10:03:10;9.23;;;2.57;;
21677;SDS011;11000;50.360;7.582;2024-03-25T10:05:31;9.17;;;2.43;;
21677;SDS011;11000;50.360;7.582;2024-03-25T10:07:52;8.23;;;2.80;;
21677;SDS011;11000;50.360;7.582;2024-03-25T10:10:13;7.73;;;2.30;;
21677;SDS011;11000;50.360;7.582;2024-03-25T10:12:35;9.67;;;2.10;;
21677;SDS011;11000;50.360;7.582;2024-03-25T10:14:56;6.03;;;1.90;;
21677;SDS011;11000;50.360;7.582;2024-03-25T10:17:17;8.13;;;2.40;;
21677;SDS011;11000;50.360;7.582;2024-03-25T10:19:38;8.23;;;2.43;;
21677;SDS011;11000;50.360;7.582;2024-03-25T10:22:04;4.07;;;1.70;;
21677;SDS011;11000;50.360;7.582;2024-03-25T10:24:26;5.50;;;1.80;;
21677;SDS011;11000;50.360;7.582;2024-03-25T10:26:48;7.20;;;1.90;;
21677;SDS011;11000;50.360;7.582;2024-03-25T10:29:09;4.93;;;1.97;;
21677;SDS011;11000;50.360;7.582;2024-03-25T10:31:33;4.57;;;2.00;;
21677;SDS011;11000;50.360;7.582;2024-03-25T10:33:54;4.67;;;1.73;;
21677;SDS011;11000;50.360;7.582;2024-03-25T10:36:14;4.70;;;1.60;;
21677;SDS011;11000;50.360;7.582;2024-03-25T10:38:35;4.77;;;1.93;;
21677;SDS011;11000;50.360;7.582;2024-03-25T10:40:56;5.37;;;1.60;;
21677;SDS011;11000;50.360;7.582;2024-03-25T10:43:18;5.00;;;1.80;;
21677;SDS011;11000;50.360;7.582;2024-03-25T10:45:47;6.40;;;1.70;;
21677;SDS011;11000;50.360;7.582;2024-03-25T10:48:15;5.33;;;2.00;;
21677;SDS011;11000;50.360;7.582;2024-03-25T10:50:37;6.73;;;1.70;;
21677;SDS011;11000;50.360;7.582;2024-03-25T10:52:59;4.43;;;1.70;;
21677;SDS011;11000;50.360;7.582;2024-03-25T10:55:22;7.40;;;1.93;;
21677;SDS011;11000;50.360;7.582;2024-03-25T10:57:42;8.00;;;1.67;;
21677;SDS011;11000;50.360;7.582;2024-03-25T11:00:03;5.27;;;1.67;;
21677;SDS011;11000;50.360;7.582;2024-03-25T11:02:24;6.00;;;1.43;;
21677;SDS011;11000;50.360;7.582;2024-03-25T11:04:45;8.33;;;1.97;;
21677;SDS011;11000;50.360;7.582;2024-03-25T11:07:07;6.27;;;1.80;;
21677;SDS011;11000;50.360;7.582;2024-03-25T11:09:31;3.03;;;1.70;;
21677;SDS011;11000;50.360;7.582;2024-03-25T11:11:52;6.43;;;1.70;;
21677;SDS011;11000;50.360;7.582;2024-03-25T11:14:16;6.33;;;2.10;;
21677;SDS011;11000;50.360;7.582;2024-03-25T11:16:36;4.53;;;1.53;;
21677;SDS011;11000;50.360;7.582;2024-03-25T11:19:01;7.90;;;1.80;;
21677;SDS011;11000;50.360;7.582;2024-03-25T11:21:25;3.33;;;1.60;;
21677;SDS011;11000;50.360;7.582;2024-03-25T11:23:46;3.10;;;1.73;;
21677;SDS011;11000;50.360;7.582;2024-03-25T11:26:19;4.63;;;1.63;;
21677;SDS011;11000;50.360;7.582;2024-03-25T11:28:40;4.47;;;1.20;;
21677;SDS011;11000;50.360;7.582;2024-03-25T11:31:00;4.33;;;1.70;;
21677;SDS011;11000;50.360;7.582;2024-03-25T11:33:22;4.40;;;1.73;;
21677;SDS011;11000;50.360;7.582;2024-03-25T11:35:44;4.20;;;1.43;;
21677;SDS011;11000;50.360;7.582;2024-03-25T11:38:05;5.77;;;1.40;;
21677;SDS011;11000;50.360;7.582;2024-03-25T11:40:25;4.90;;;1.40;;
21677;SDS011;11000;50.360;7.582;2024-03-25T11:42:46;3.40;;;1.30;;
21677;SDS011;11000;50.360;7.582;2024-03-25T11:45:07;3.90;;;1.43;;
21677;SDS011;11000;50.360;7.582;2024-03-25T11:47:32;4.10;;;1.30;;
21677;SDS011;11000;50.360;7.582;2024-03-25T11:49:53;4.20;;;1.77;;
21677;SDS011;11000;50.360;7.582;2024-03-25T11:52:13;4.93;;;1.50;;
21677;SDS011;11000;50.360;7.582;2024-03-25T11:54:35;5.17;;;2.20;;
21677;SDS011;11000;50.360;7.582;2024-03-25T11:56:56;3.27;;;1.50;;
21677;SDS011;11000;50.360;7.582;2024-03-25T11:59:16;2.97;;;1.57;;
21677;SDS011;11000;50.360;7.582;2024-03-25T12:01:37;3.97;;;1.67;;
21677;SDS011;11000;50.360;7.582;2024-03-25T12:04:11;2.40;;;1.30;;
21677;SDS011;11000;50.360;7.582;2024-03-25T12:06:32;2.70;;;1.20;;
21677;SDS011;11000;50.360;7.582;2024-03-25T12:08:53;3.43;;;1.33;;
21677;SDS011;11000;50.360;7.582;2024-03-25T12:11:33;3.83;;;1.47;;
21677;SDS011;11000;50.360;7.582;2024-03-25T12:13:55;3.53;;;1.43;;
21677;SDS011;11000;50.360;7.582;2024-03-25T12:16:15;2.57;;;1.23;;
21677;SDS011;11000;50.360;7.582;2024-03-25T12:18:36;3.10;;;1.17;;
21677;SDS011;11000;50.360;7.582;2024-03-25T12:21:01;5.10;;;1.43;;
21677;SDS011;11000;50.360;7.582;2024-03-25T12:23:28;3.73;;;1.00;;
21677;SDS011;11000;50.360;7.582;2024-03-25T12:25:50;2.63;;;1.17;;
21677;SDS011;11000;50.360;7.582;2024-03-25T12:28:11;1.70;;;0.93;;
21677;SDS011;11000;50.360;7.582;2024-03-25T12:30:31;3.67;;;1.27;;
21677;SDS011;11000;50.360;7.582;2024-03-25T12:32:52;3.67;;;1.37;;
21677;SDS011;11000;50.360;7.582;2024-03-25T12:35:15;5.13;;;1.27;;
21677;SDS011;11000;50.360;7.582;2024-03-25T12:37:36;3.77;;;1.40;;
21677;SDS011;11000;50.360;7.582;2024-03-25T12:39:58;3.50;;;1.40;;
21677;SDS011;11000;50.360;7.582;2024-03-25T12:42:19;2.33;;;1.10;;
21677;SDS011;11000;50.360;7.582;2024-03-25T12:44:41;5.83;;;1.30;;
21677;SDS011;11000;50.360;7.582;2024-03-25T12:47:01;4.07;;;1.20;;
21677;SDS011;11000;50.360;7.582;2024-03-25T12:49:22;3.57;;;1.50;;
21677;SDS011;11000;50.360;7.582;2024-03-25T12:51:42;5.47;;;1.37;;
21677;SDS011;11000;50.360;7.582;2024-03-25T12:54:03;3.73;;;1.33;;
21677;SDS011;11000;50.360;7.582;2024-03-25T12:56:24;2.77;;;1.30;;
21677;SDS011;11000;50.360;7.582;2024-03-25T12:58:44;3.10;;;1.33;;
21677;SDS011;11000;50.360;7.582;2024-03-25T13:01:05;2.10;;;0.97;;
21677;SDS011;11000;50.360;7.582;2024-03-25T13:03:25;4.23;;;1.53;;
21677;SDS011;11000;50.360;7.582;2024-03-25T13:05:46;3.23;;;1.10;;
21677;SDS011;11000;50.360;7.582;2024-03-25T13:08:07;2.23;;;1.13;;
21677;SDS011;11000;50.360;7.582;2024-03-25T13:10:27;5.93;;;1.63;;
21677;SDS011;11000;50.360;7.582;2024-03-25T13:12:49;3.80;;;1.33;;
21677;SDS011;11000;50.360;7.582;2024-03-25T13:15:10;5.33;;;1.20;;
21677;SDS011;11000;50.360;7.582;2024-03-25T13:17:30;2.60;;;0.90;;
21677;SDS011;11000;50.360;7.582;2024-03-25T13:19:51;4.33;;;1.60;;
21677;SDS011;11000;50.360;7.582;2024-03-25T13:22:11;3.33;;;1.40;;
21677;SDS011;11000;50.360;7.582;2024-03-25T13:24:32;3.77;;;1.43;;
21677;SDS011;11000;50.360;7.582;2024-03-25T13:26:52;3.87;;;1.63;;
21677;SDS011;11000;50.360;7.582;2024-03-25T13:29:13;3.33;;;1.07;;
21677;SDS011;11000;50.360;7.582;2024-03-25T13:31:33;4.63;;;1.33;;
21677;SDS011;11000;50.360;7.582;2024-03-25T13:33:54;3.90;;;1.37;;
21677;SDS011;11000;50.360;7.582;2024-03-25T13:36:14;3.73;;;1.27;;
21677;SDS011;11000;50.360;7.582;2024-03-25T13:38:35;2.50;;;1.07;;
21677;SDS011;11000;50.360;7.582;2024-03-25T13:40:55;3.13;;;1.20;;
21677;SDS011;11000;50.360;7.582;2024-03-25T13:43:16;3.77;;;1.17;;
21677;SDS011;11000;50.360;7.582;2024-03-25T13:45:36;2.33;;;1.20;;
21677;SDS011;11000;50.360;7.582;2024-03-25T13:48:07;3.10;;;1.13;;
21677;SDS011;11000;50.360;7.582;2024-03-25T13:50:27;4.30;;;1.40;;
21677;SDS011;11000;50.360;7.582;2024-03-25T13:52:48;3.93;;;1.23;;
21677;SDS011;11000;50.360;7.582;2024-03-25T13:55:09;2.07;;;1.20;;
21677;SDS011;11000;50.360;7.582;2024-03-25T13:57:29;3.47;;;1.00;;
21677;SDS011;11000;50.360;7.582;2024-03-25T13:59:50;2.27;;;1.40;;
21677;SDS011;11000;50.360;7.582;2024-03-25T14:02:11;2.57;;;1.10;;
21677;SDS011;11000;50.360;7.582;2024-03-25T14:04:31;3.20;;;0.90;;
21677;SDS011;11000;50.360;7.582;2024-03-25T14:06:52;3.50;;;1.20;;
21677;SDS011;11000;50.360;7.582;2024-03-25T14:09:23;4.23;;;1.30;;